Time;durP1;ratioP1;P1;durP2;ratioP2;P2;SDS_P1;SDS_P2;PMS_P1;PMS_P2;Temp;Humidity;BMP_temperature;BMP_pressure;BME280_temperature;BME280_humidity;BME280_pressure;Samples;Min_cycle;Max_cycle;Signal;HPM_P1;HPM_P2
2022/04/28 00:01:29;;;;;;;6.22;2.80;;;8.40;92.20;;;;;;2212082;64;20231;-68
2022/04/28 00:04:08;;;;;;;6.53;2.30;;;8.40;92.20;;;;;;2213832;64;20278;-68
2022/04/28 00:06:44;;;;;;;6.72;3.28;;;8.40;92.00;;;;;;2213860;64;20172;-67
2022/04/28 00:09:21;;;;;;;6.75;2.55;;;8.40;91.90;;;;;;2212461;64;20264;-68
2022/04/28 00:11:57;;;;;;;9.32;3.35;;;8.40;91.90;;;;;;2213779;64;20183;-67
2022/04/28 00:14:39;;;;;;;12.45;3.40;;;8.40;91.90;;;;;;2210780;64;20180;-68
2022/04/28 00:17:19;;;;;;;7.03;3.30;;;8.40;91.90;;;;;;2211965;64;20309;-68
2022/04/28 00:19:55;;;;;;;8.82;2.97;;;8.40;91.90;;;;;;2214825;64;20653;-67
2022/04/28 00:22:32;;;;;;;5.18;3.28;;;8.40;91.90;;;;;;2214449;64;20307;-68
2022/04/28 00:25:10;;;;;;;9.65;3.10;;;8.40;91.90;;;;;;2213918;64;20191;-68
2022/04/28 00:27:54;;;;;;;8.80;3.42;;;8.40;92.00;;;;;;2214014;64;20436;-67
2022/04/28 00:30:31;;;;;;;6.35;3.05;;;8.40;91.90;;;;;;2213035;64;20718;-68
2022/04/28 00:33:08;;;;;;;5.47;2.80;;;8.40;91.90;;;;;;2214995;64;20189;-66
2022/04/28 00:35:46;;;;;;;9.45;3.92;;;8.40;91.90;;;;;;2214950;64;20235;-67
2022/04/28 00:38:27;;;;;;;4.55;3.35;;;8.40;92.20;;;;;;2212785;64;20305;-67
2022/04/28 00:41:08;;;;;;;7.50;3.08;;;8.40;92.00;;;;;;2213640;64;20794;-67
2022/04/28 00:44:10;;;;;;;4.07;2.75;;;8.40;92.00;;;;;;2214780;64;20192;-67
2022/04/28 00:46:54;;;;;;;8.82;3.78;;;8.40;92.00;;;;;;2214341;64;20214;-68
2022/04/28 00:52:31;;;;;;;10.95;2.95;;;8.40;92.10;;;;;;2214081;64;20176;-68
2022/04/28 00:55:09;;;;;;;6.57;2.92;;;8.40;92.10;;;;;;2208278;64;20188;-69
2022/04/28 00:57:45;;;;;;;6.20;3.00;;;8.40;92.10;;;;;;2216629;64;20304;-67
2022/04/28 01:00:23;;;;;;;5.85;2.78;;;8.50;92.10;;;;;;2222020;64;20300;-66
2022/04/28 01:03:00;;;;;;;6.70;3.03;;;8.40;92.10;;;;;;2214428;64;20597;-67
2022/04/28 01:05:38;;;;;;;4.45;2.70;;;8.50;92.10;;;;;;2211413;64;20215;-68
2022/04/28 01:08:17;;;;;;;6.93;3.28;;;8.50;92.10;;;;;;2214899;64;20181;-67
2022/04/28 01:10:55;;;;;;;4.90;2.75;;;8.50;92.10;;;;;;2210461;64;20168;-68
2022/04/28 01:13:36;;;;;;;6.95;3.58;;;8.50;92.00;;;;;;2211027;64;20276;-67
2022/04/28 01:16:16;;;;;;;5.88;3.03;;;8.40;92.00;;;;;;2214255;64;20210;-67
2022/04/28 01:18:54;;;;;;;6.10;3.20;;;8.50;92.00;;;;;;2214163;64;20172;-67
2022/04/28 01:21:33;;;;;;;9.48;3.65;;;8.50;92.10;;;;;;2214040;64;20687;-67
2022/04/28 01:24:11;;;;;;;7.93;3.50;;;8.40;92.10;;;;;;2215232;64;20348;-68
2022/04/28 01:26:56;;;;;;;5.63;3.05;;;8.40;92.20;;;;;;2214157;64;20173;-66
2022/04/28 01:29:33;;;;;;;9.50;3.22;;;8.40;92.30;;;;;;2213695;64;20210;-69
2022/04/28 01:32:10;;;;;;;6.40;3.40;;;8.40;92.40;;;;;;2215172;64;20160;-67
2022/04/28 01:34:47;;;;;;;9.40;3.70;;;8.40;92.50;;;;;;2215098;64;20164;-67
2022/04/28 01:37:25;;;;;;;8.82;3.28;;;8.40;92.50;;;;;;2213120;64;20164;-68
2022/04/28 01:40:02;;;;;;;5.88;3.13;;;8.40;92.60;;;;;;2210192;64;20216;-68
2022/04/28 01:42:59;;;;;;;8.43;3.08;;;8.50;92.70;;;;;;2215698;64;20180;-67
2022/04/28 01:45:35;;;;;;;;;;;8.40;92.70;;;;;;2216091;64;20318;-68
2022/04/28 01:48:11;;;;;;;;;;;8.30;92.60;;;;;;2214280;64;20150;-67
2022/04/28 01:56:39;;;;;;;8.05;3.63;;;8.30;92.80;;;;;;2214693;64;20228;-66
2022/04/28 01:59:18;;;;;;;6.90;3.40;;;8.30;93.00;;;;;;2214970;64;20184;-67
2022/04/28 02:01:54;;;;;;;7.07;3.65;;;8.30;93.10;;;;;;2215065;64;20168;-67
2022/04/28 02:04:31;;;;;;;5.47;2.88;;;8.30;93.30;;;;;;2211276;64;20806;-68
2022/04/28 02:07:09;;;;;;;9.95;4.18;;;8.40;93.40;;;;;;2215746;64;20190;-67
2022/04/28 02:09:48;;;;;;;5.57;3.40;;;8.40;93.50;;;;;;2215514;64;20172;-66
2022/04/28 02:12:25;;;;;;;7.20;3.45;;;8.30;93.60;;;;;;2215186;64;20189;-67
2022/04/28 02:15:02;;;;;;;4.63;3.10;;;8.40;93.80;;;;;;2215303;64;20641;-68
2022/04/28 02:17:41;;;;;;;7.47;3.20;;;8.40;94.00;;;;;;2211576;64;20243;-66
2022/04/28 02:20:21;;;;;;;8.35;3.03;;;8.40;93.90;;;;;;2215397;64;20188;-67
2022/04/28 02:23:00;;;;;;;9.50;3.38;;;8.40;93.90;;;;;;2214995;64;20164;-67
2022/04/28 02:25:37;;;;;;;5.85;4.07;;;8.40;94.00;;;;;;2216958;64;20347;-68
2022/04/28 02:28:13;;;;;;;9.60;3.72;;;8.40;94.10;;;;;;2213183;64;20285;-67
2022/04/28 02:30:51;;;;;;;10.00;3.78;;;8.40;94.10;;;;;;2215969;64;20350;-67
2022/04/28 02:33:32;;;;;;;7.00;4.07;;;8.40;94.20;;;;;;2213991;64;20176;-68
2022/04/28 02:36:15;;;;;;;9.57;5.03;;;8.40;94.30;;;;;;2215129;64;20737;-67
2022/04/28 02:38:55;;;;;;;10.13;5.75;;;8.30;94.30;;;;;;2215733;64;20657;-67
2022/04/28 02:41:34;;;;;;;8.05;3.95;;;8.40;94.40;;;;;;2211120;64;20188;-67
2022/04/28 02:44:12;;;;;;;7.25;4.32;;;8.30;94.40;;;;;;2213681;64;20736;-66
2022/04/28 02:46:48;;;;;;;5.70;4.25;;;8.30;94.40;;;;;;2215036;64;20574;-65
2022/04/28 02:49:25;;;;;;;7.82;3.88;;;8.30;94.40;;;;;;2215234;64;20961;-65
2022/04/28 02:52:01;;;;;;;8.60;3.95;;;8.30;94.40;;;;;;2215483;64;20200;-67
2022/04/28 02:54:38;;;;;;;5.80;3.53;;;8.30;94.40;;;;;;2214614;64;20270;-67
2022/04/28 02:57:16;;;;;;;7.80;3.78;;;8.30;94.40;;;;;;2211189;64;20181;-65
2022/04/28 02:59:57;;;;;;;7.88;3.42;;;8.30;94.40;;;;;;2220249;64;20239;-66
2022/04/28 03:02:37;;;;;;;6.32;4.28;;;8.40;94.30;;;;;;2211037;64;20172;-67
2022/04/28 03:05:13;;;;;;;7.18;3.70;;;8.30;94.30;;;;;;2214978;64;20191;-68
2022/04/28 03:10:52;;;;;;;9.73;4.07;;;8.30;94.30;;;;;;2212596;64;20185;-67
2022/04/28 03:13:31;;;;;;;12.57;4.45;;;8.30;94.30;;;;;;2214349;64;20327;-67
2022/04/28 03:16:14;;;;;;;7.60;4.43;;;8.30;94.40;;;;;;2213756;64;20584;-67
2022/04/28 03:18:51;;;;;;;18.13;4.93;;;8.30;94.60;;;;;;2217840;64;20188;-68
2022/04/28 03:21:27;;;;;;;9.32;4.10;;;8.20;94.70;;;;;;2216056;64;20597;-65
2022/04/28 03:24:04;;;;;;;7.50;3.70;;;8.20;94.80;;;;;;2215870;64;20212;-66
2022/04/28 03:26:41;;;;;;;7.32;4.45;;;8.20;95.00;;;;;;2214965;64;20228;-67
2022/04/28 03:29:18;;;;;;;8.65;4.07;;;8.20;95.00;;;;;;2215797;64;20180;-67
2022/04/28 03:31:54;;;;;;;8.02;3.95;;;8.20;95.00;;;;;;2214351;64;20176;-67
2022/04/28 03:34:33;;;;;;;9.52;4.63;;;8.20;95.10;;;;;;2215001;64;20227;-68
2022/04/28 03:37:15;;;;;;;9.05;4.30;;;8.20;95.30;;;;;;2214520;64;20299;-66
2022/04/28 03:39:55;;;;;;;8.57;3.90;;;8.20;95.40;;;;;;2219184;64;20180;-67
2022/04/28 03:42:36;;;;;;;7.68;4.25;;;8.30;95.40;;;;;;2214736;64;20186;-66
2022/04/28 03:45:16;;;;;;;10.02;4.20;;;8.30;95.50;;;;;;2215478;64;20200;-67
2022/04/28 03:47:52;;;;;;;10.48;4.22;;;8.30;95.60;;;;;;2216062;64;20273;-65
2022/04/28 03:50:31;;;;;;;10.40;4.30;;;8.30;95.60;;;;;;2214257;64;20160;-67
2022/04/28 03:53:12;;;;;;;8.32;4.82;;;8.40;95.60;;;;;;2213091;64;20774;-68
2022/04/28 03:55:54;;;;;;;10.52;6.07;;;8.40;95.60;;;;;;2214625;64;20300;-66
2022/04/28 03:58:38;;;;;;;9.90;6.22;;;8.30;95.90;;;;;;2214140;64;20168;-68
2022/04/28 04:01:15;;;;;;;10.40;5.40;;;8.30;95.70;;;;;;2212757;64;20308;-67
2022/04/28 04:03:53;;;;;;;9.20;5.53;;;8.30;95.80;;;;;;2214903;64;20236;-67
2022/04/28 04:06:34;;;;;;;6.78;5.53;;;8.30;95.80;;;;;;2210372;64;20566;-67
2022/04/28 04:09:15;;;;;;;10.70;5.90;;;8.40;95.90;;;;;;2215019;64;20339;-67
2022/04/28 04:11:54;;;;;;;9.57;5.63;;;8.30;95.90;;;;;;2215315;64;20192;-68
2022/04/28 04:14:32;;;;;;;8.10;4.72;;;8.30;96.00;;;;;;2213919;64;20172;-68
2022/04/28 04:17:12;;;;;;;6.35;4.43;;;8.40;95.90;;;;;;2214551;64;20668;-67
2022/04/28 04:19:49;;;;;;;12.20;5.90;;;8.40;95.90;;;;;;2214873;64;20577;-67
2022/04/28 04:22:25;;;;;;;8.00;4.53;;;8.30;96.10;;;;;;2207825;65;20276;-66
2022/04/28 04:25:03;;;;;;;8.50;4.05;;;8.40;96.40;;;;;;2210389;64;20328;-66
2022/04/28 04:27:40;;;;;;;5.53;4.38;;;8.40;96.70;;;;;;2214495;64;20208;-67
2022/04/28 04:33:13;;;;;;;14.07;4.95;;;8.50;97.10;;;;;;2223125;64;20184;-66
2022/04/28 04:35:53;;;;;;;10.55;4.53;;;8.50;97.40;;;;;;2214890;64;20172;-65
2022/04/28 04:38:32;;;;;;;10.88;4.47;;;8.60;97.70;;;;;;2217251;64;20241;-66
2022/04/28 04:41:13;;;;;;;8.57;4.88;;;8.70;98.00;;;;;;2216241;64;20231;-67
2022/04/28 04:43:52;;;;;;;10.25;4.85;;;8.30;98.10;;;;;;2213729;64;20415;-67
2022/04/28 04:46:29;;;;;;;10.23;4.85;;;8.20;98.50;;;;;;2215095;64;20186;-67
2022/04/28 04:49:06;;;;;;;10.35;4.78;;;8.10;98.80;;;;;;2217473;64;20199;-67
2022/04/28 04:51:45;;;;;;;10.40;4.63;;;8.00;99.20;;;;;;2217837;64;20196;-67
2022/04/28 04:54:24;;;;;;;8.05;4.63;;;7.90;99.60;;;;;;2213680;64;20216;-68
2022/04/28 04:57:01;;;;;;;5.93;4.32;;;7.80;99.80;;;;;;2213119;64;20595;-68
2022/04/28 04:59:37;;;;;;;13.00;5.22;;;7.70;99.90;;;;;;2213520;64;20359;-67
2022/04/28 05:02:14;;;;;;;7.45;5.07;;;7.70;99.90;;;;;;1983375;64;15073767;-67
2022/04/28 05:04:52;;;;;;;11.60;4.30;;;7.60;99.90;;;;;;2214411;64;20377;-67
2022/04/28 05:07:32;;;;;;;8.35;4.50;;;7.60;99.90;;;;;;2214153;64;20360;-68
2022/04/28 05:10:13;;;;;;;12.38;4.43;;;7.50;99.90;;;;;;2213997;64;20248;-67
2022/04/28 05:12:52;;;;;;;9.85;4.53;;;7.50;99.90;;;;;;2216076;64;20171;-67
2022/04/28 05:15:32;;;;;;;16.10;5.57;;;7.40;99.90;;;;;;2214053;64;20172;-68
2022/04/28 05:18:11;;;;;;;12.30;4.68;;;7.40;99.90;;;;;;2213935;64;20152;-68
2022/04/28 05:20:52;;;;;;;7.72;3.40;;;7.40;99.90;;;;;;2214544;64;20172;-67
2022/04/28 05:23:33;;;;;;;11.55;3.90;;;7.30;99.90;;;;;;2214771;64;20244;-67
2022/04/28 05:26:12;;;;;;;8.88;3.63;;;7.30;99.90;;;;;;2214310;64;20337;-66
2022/04/28 05:28:49;;;;;;;12.32;4.57;;;7.30;99.90;;;;;;2217818;64;20192;-67
2022/04/28 05:31:26;;;;;;;9.75;4.10;;;7.30;99.90;;;;;;2213244;64;20298;-67
2022/04/28 05:34:05;;;;;;;10.50;4.45;;;7.30;99.90;;;;;;2213713;64;20204;-67
2022/04/28 05:36:44;;;;;;;8.77;4.20;;;7.20;99.90;;;;;;2207820;64;20186;-67
2022/04/28 05:39:24;;;;;;;7.53;3.83;;;7.20;99.90;;;;;;2212895;64;20192;-66
2022/04/28 05:42:01;;;;;;;9.15;4.00;;;7.20;99.90;;;;;;2214863;64;20190;-68
2022/04/28 05:47:34;;;;;;;5.75;3.67;;;7.20;99.90;;;;;;2214802;64;20190;-68
2022/04/28 05:50:15;;;;;;;7.13;3.80;;;7.20;99.90;;;;;;2215165;64;20545;-67
2022/04/28 05:52:55;;;;;;;6.57;3.63;;;7.20;99.90;;;;;;2213653;64;20204;-67
2022/04/28 05:55:34;;;;;;;11.27;3.97;;;7.20;99.90;;;;;;2214346;64;20243;-67
2022/04/28 05:58:12;;;;;;;7.45;3.53;;;7.20;99.90;;;;;;2217522;64;20363;-67
2022/04/28 06:00:52;;;;;;;6.65;4.10;;;7.30;99.90;;;;;;2213046;64;20164;-67
2022/04/28 06:03:32;;;;;;;12.07;4.88;;;7.40;99.90;;;;;;2207318;65;20224;-67
2022/04/28 06:06:10;;;;;;;10.00;4.40;;;8.40;99.90;;;;;;2215236;64;20217;-66
2022/04/28 06:08:49;;;;;;;10.25;4.20;;;7.60;99.90;;;;;;2213593;64;20215;-67
2022/04/28 06:11:27;;;;;;;9.65;4.03;;;7.70;99.90;;;;;;2215590;64;20186;-67
2022/04/28 06:14:07;;;;;;;9.23;3.67;;;7.80;99.90;;;;;;2215578;64;20198;-67
2022/04/28 06:16:46;;;;;;;8.50;3.80;;;7.80;99.90;;;;;;2215744;64;20172;-65
2022/04/28 06:19:25;;;;;;;10.65;4.72;;;7.90;99.90;;;;;;2215610;64;20203;-67
2022/04/28 06:22:02;;;;;;;6.63;2.97;;;7.80;99.90;;;;;;2223480;64;20197;-69
2022/04/28 06:24:39;;;;;;;5.90;3.65;;;7.80;99.90;;;;;;2223562;64;20200;-68
2022/04/28 06:27:16;;;;;;;7.45;4.25;;;7.90;99.90;;;;;;2218932;64;20192;-67
2022/04/28 06:29:53;;;;;;;3.70;2.53;;;7.90;99.90;;;;;;2215040;64;20248;-66
2022/04/28 06:32:30;;;;;;;8.23;2.90;;;8.00;99.90;;;;;;2214930;64;20264;-67
2022/04/28 06:35:08;;;;;;;7.78;3.60;;;8.00;99.90;;;;;;2211547;64;20190;-67
2022/04/28 06:37:46;;;;;;;5.35;2.63;;;8.10;99.90;;;;;;2213491;64;20202;-67
2022/04/28 06:40:26;;;;;;;9.90;2.95;;;8.90;99.90;;;;;;2209244;64;20202;-67
2022/04/28 06:43:06;;;;;;;7.10;2.40;;;8.20;99.90;;;;;;2208001;65;20336;-67
2022/04/28 06:46:12;;;;;;;7.47;2.05;;;8.20;99.90;;;;;;2208897;64;20214;-68
2022/04/28 06:48:42;;;;;;;7.18;2.08;;;8.40;99.90;;;;;;2208023;64;20384;-67
2022/04/28 06:51:22;;;;;;;7.45;2.55;;;8.40;99.90;;;;;;2215106;64;20252;-67
2022/04/28 06:54:00;;;;;;;5.50;3.00;;;8.60;99.90;;;;;;2215638;64;20637;-68
2022/04/28 06:56:41;;;;;;;6.82;2.50;;;8.70;99.90;;;;;;2215641;64;20655;-67
2022/04/28 06:59:20;;;;;;;10.40;2.50;;;8.80;99.90;;;;;;2215519;64;20171;-68
2022/04/28 07:01:57;;;;;;;8.73;2.35;;;9.10;99.90;;;;;;2215479;64;20317;-67
2022/04/28 07:04:35;;;;;;;7.30;2.13;;;9.40;99.90;;;;;;2215487;64;20302;-67
2022/04/28 07:07:16;;;;;;;4.32;1.98;;;9.60;99.90;;;;;;2215525;64;20155;-66
2022/04/28 07:09:55;;;;;;;6.40;2.00;;;9.70;99.90;;;;;;2215403;64;20216;-67
2022/04/28 07:12:33;;;;;;;4.28;1.50;;;9.80;99.90;;;;;;2215421;64;20240;-67
2022/04/28 07:15:13;;;;;;;5.82;1.88;;;9.90;99.90;;;;;;2213771;64;20297;-68
2022/04/28 07:17:50;;;;;;;5.85;1.80;;;10.10;99.90;;;;;;2208989;64;20243;-70
2022/04/28 07:20:27;;;;;;;6.35;2.25;;;10.20;99.70;;;;;;2214466;64;20247;-67
2022/04/28 07:23:06;;;;;;;7.15;2.55;;;10.10;99.20;;;;;;2215174;64;20179;-66
2022/04/28 07:25:45;;;;;;;7.85;2.55;;;10.00;99.00;;;;;;2210649;64;20192;-70
2022/04/28 07:28:22;;;;;;;7.32;1.90;;;9.90;99.00;;;;;;2215005;64;20183;-69
2022/04/28 07:31:00;;;;;;;4.82;2.05;;;9.80;99.00;;;;;;2215314;64;20658;-69
2022/04/28 07:33:40;;;;;;;8.15;2.53;;;9.80;99.20;;;;;;2214922;64;20192;-69
2022/04/28 07:36:19;;;;;;;7.07;2.33;;;9.70;99.20;;;;;;2215224;64;20324;-69
2022/04/28 07:38:56;;;;;;;5.47;2.53;;;9.70;99.20;;;;;;2214773;64;20607;-69
2022/04/28 07:41:33;;;;;;;3.92;1.65;;;9.70;99.20;;;;;;2215009;64;20184;-70
2022/04/28 07:44:10;;;;;;;4.78;1.98;;;9.80;99.00;;;;;;2214648;64;20285;-70
2022/04/28 07:46:47;;;;;;;9.68;2.17;;;10.00;98.70;;;;;;2215045;64;20226;-69
2022/04/28 07:49:25;;;;;;;7.10;2.08;;;10.20;98.60;;;;;;2211372;64;20246;-70
2022/04/28 07:52:05;;;;;;;6.18;2.17;;;10.40;98.10;;;;;;2214751;64;20184;-70
2022/04/28 07:54:42;;;;;;;4.30;2.28;;;10.40;97.60;;;;;;2215146;64;20218;-69
2022/04/28 07:57:22;;;;;;;6.65;2.35;;;10.30;97.40;;;;;;2207144;65;20219;-69
2022/04/28 07:59:58;;;;;;;7.18;2.00;;;10.20;97.40;;;;;;2208467;64;20302;-70
2022/04/28 08:02:38;;;;;;;9.57;2.42;;;10.20;97.30;;;;;;2215276;64;20222;-70
2022/04/28 08:05:15;;;;;;;5.28;1.63;;;10.10;97.40;;;;;;2215329;64;20191;-69
2022/04/28 08:07:53;;;;;;;4.45;2.15;;;10.00;97.30;;;;;;2213156;64;20235;-68
2022/04/28 08:10:32;;;;;;;7.38;1.73;;;9.90;97.40;;;;;;2214900;64;20222;-70
2022/04/28 08:13:09;;;;;;;7.97;2.03;;;9.90;97.50;;;;;;2214452;64;20609;-69
2022/04/28 08:15:45;;;;;;;9.85;1.83;;;9.80;97.70;;;;;;2207636;64;20297;-68
2022/04/28 08:18:22;;;;;;;5.65;2.35;;;9.80;98.00;;;;;;2209577;64;20726;-69
2022/04/28 08:21:01;;;;;;;5.45;2.20;;;9.90;98.00;;;;;;2213389;64;20164;-69
2022/04/28 08:23:37;;;;;;;7.53;1.95;;;10.20;97.80;;;;;;2214987;64;20188;-69
2022/04/28 08:26:16;;;;;;;8.27;2.10;;;10.30;97.40;;;;;;2214637;64;20184;-71
2022/04/28 08:28:55;;;;;;;5.60;2.10;;;10.40;96.90;;;;;;2214866;64;20164;-69
2022/04/28 08:31:32;;;;;;;5.95;2.25;;;10.70;96.70;;;;;;2214754;64;20202;-70
2022/04/28 08:34:10;;;;;;;6.15;2.95;;;11.00;96.30;;;;;;2214993;64;20339;-70
2022/04/28 08:36:47;;;;;;;7.15;2.70;;;11.30;96.10;;;;;;2208431;64;20922;-70
2022/04/28 08:39:25;;;;;;;10.93;3.67;;;11.60;95.80;;;;;;2210041;64;20172;-71
2022/04/28 08:42:06;;;;;;;6.82;2.38;;;11.80;95.30;;;;;;2214996;64;20214;-68
2022/04/28 08:44:45;;;;;;;6.85;2.67;;;12.00;95.00;;;;;;2214603;64;20675;-68
2022/04/28 08:47:25;;;;;;;4.07;2.60;;;12.20;94.50;;;;;;2214896;64;20196;-69
2022/04/28 08:50:05;;;;;;;6.65;2.97;;;12.50;93.80;;;;;;2214012;64;20164;-68
2022/04/28 08:52:41;;;;;;;8.32;3.38;;;12.60;93.10;;;;;;2214699;64;20293;-70
2022/04/28 08:55:19;;;;;;;9.82;3.40;;;12.80;92.90;;;;;;2214551;64;20217;-71
2022/04/28 08:58:01;;;;;;;7.13;3.42;;;13.00;92.10;;;;;;2214441;64;20302;-69
2022/04/28 09:00:38;;;;;;;7.85;3.17;;;13.10;91.90;;;;;;2213998;64;20571;-69
2022/04/28 09:03:19;;;;;;;6.65;3.08;;;13.30;91.80;;;;;;2214126;64;20197;-70
2022/04/28 09:05:56;;;;;;;8.48;2.78;;;13.40;91.20;;;;;;2212411;64;20621;-68
2022/04/28 09:08:34;;;;;;;10.82;3.35;;;13.50;90.70;;;;;;2213660;64;20249;-69
2022/04/28 09:11:17;;;;;;;7.78;3.25;;;13.60;90.10;;;;;;2214633;64;20168;-69
2022/04/28 09:14:18;;;;;;;4.57;2.50;;;13.60;89.40;;;;;;2214253;64;20735;-69
2022/04/28 09:17:04;;;;;;;6.85;2.88;;;13.70;89.40;;;;;;2214699;64;20638;-69
2022/04/28 09:19:46;;;;;;;6.35;2.97;;;13.80;88.50;;;;;;2214057;64;20317;-69
2022/04/28 09:22:25;;;;;;;3.60;2.40;;;13.90;88.00;;;;;;2213621;64;20181;-68
2022/04/28 09:25:09;;;;;;;7.38;2.55;;;14.00;87.20;;;;;;2213986;64;20184;-70
2022/04/28 09:27:52;;;;;;;5.80;2.65;;;13.90;86.30;;;;;;2214217;64;20185;-68
2022/04/28 09:30:51;;;;;;;;;;;14.00;86.10;;;;;;2214196;64;20275;-69
2022/04/28 09:33:30;;;;;;;6.80;2.83;;;14.00;85.20;;;;;;2211010;64;20121;-70
2022/04/28 09:36:10;;;;;;;8.10;3.00;;;14.00;86.10;;;;;;2213406;64;20184;-71
2022/04/28 09:38:57;;;;;;;10.85;2.92;;;14.10;85.00;;;;;;2212003;64;20560;-70
2022/04/28 09:44:30;;;;;;;6.45;2.47;;;14.20;84.70;;;;;;2215543;64;20210;-69
2022/04/28 09:47:10;;;;;;;6.47;3.78;;;14.20;84.40;;;;;;2214623;64;22354;-69
2022/04/28 09:49:55;;;;;;;9.57;3.08;;;14.10;84.00;;;;;;2216547;64;20354;-70
2022/04/28 09:52:33;;;;;;;8.77;2.80;;;14.10;83.70;;;;;;2215728;64;20178;-71
2022/04/28 09:55:16;;;;;;;5.32;2.25;;;14.20;83.10;;;;;;2214960;64;20257;-70
2022/04/28 09:57:57;;;;;;;6.75;2.88;;;14.30;82.60;;;;;;2215908;64;20308;-70
2022/04/28 10:00:34;;;;;;;9.20;3.22;;;14.40;81.30;;;;;;2214565;64;20500;-68
2022/04/28 10:03:12;;;;;;;11.30;3.17;;;14.50;81.00;;;;;;2215711;64;20212;-70
2022/04/28 10:05:50;;;;;;;8.48;2.90;;;14.50;80.30;;;;;;2215415;64;20205;-70
2022/04/28 10:08:27;;;;;;;7.55;2.88;;;14.50;80.00;;;;;;2215552;64;20164;-70
2022/04/28 10:11:06;;;;;;;7.90;2.53;;;14.50;80.10;;;;;;2215481;64;20205;-69
2022/04/28 10:13:46;;;;;;;7.95;2.90;;;14.50;79.80;;;;;;2215081;64;20180;-71
2022/04/28 10:16:25;;;;;;;8.18;2.58;;;14.50;80.00;;;;;;2215635;64;20751;-71
2022/04/28 10:19:12;;;;;;;7.97;2.30;;;14.50;79.50;;;;;;2215165;64;20196;-70
2022/04/28 10:21:56;;;;;;;9.23;2.60;;;14.60;79.20;;;;;;2215584;64;20205;-71
2022/04/28 10:33:22;;;;;;;4.95;2.30;;;15.30;77.60;;;;;;2208132;65;20391;-71
2022/04/28 10:36:04;;;;;;;6.03;2.83;;;15.30;76.50;;;;;;2214882;64;20164;-70
2022/04/28 10:38:44;;;;;;;9.15;2.30;;;15.30;76.50;;;;;;2215702;64;20231;-71
2022/04/28 10:41:29;;;;;;;7.10;2.80;;;15.40;76.40;;;;;;2215032;64;20255;-69
2022/04/28 10:44:16;;;;;;;9.05;2.88;;;15.60;75.50;;;;;;2211888;64;20212;-70
2022/04/28 10:47:02;;;;;;;5.93;1.90;;;15.60;74.90;;;;;;2209194;64;20732;-70
2022/04/28 10:49:43;;;;;;;11.63;2.88;;;16.00;74.40;;;;;;2209863;64;20782;-69
2022/04/28 10:52:26;;;;;;;6.72;2.20;;;15.30;74.50;;;;;;2210733;64;20577;-71
2022/04/28 10:55:10;;;;;;;6.68;2.45;;;15.40;74.20;;;;;;2214967;64;20190;-69
2022/04/28 10:57:47;;;;;;;5.43;2.25;;;15.30;74.10;;;;;;2215291;64;20214;-69
2022/04/28 11:00:33;;;;;;;7.55;2.67;;;15.30;74.10;;;;;;2215061;64;20711;-70
2022/04/28 11:03:15;;;;;;;7.80;2.55;;;15.40;74.20;;;;;;2215349;64;20688;-71
2022/04/28 11:05:54;;;;;;;7.03;2.63;;;15.40;74.10;;;;;;2215086;64;20886;-70
2022/04/28 11:08:37;;;;;;;9.55;2.50;;;15.50;73.90;;;;;;2215538;64;20272;-70
2022/04/28 11:11:16;;;;;;;9.30;2.55;;;15.50;73.80;;;;;;2215066;64;20172;-71
2022/04/28 11:13:58;;;;;;;7.50;2.47;;;15.70;73.70;;;;;;2215184;64;20156;-72
2022/04/28 11:16:35;;;;;;;10.35;2.72;;;15.90;72.50;;;;;;2210955;64;20281;-70
2022/04/28 11:19:14;;;;;;;6.63;2.90;;;16.10;72.20;;;;;;2214651;64;20289;-71
2022/04/28 11:21:54;;;;;;;5.45;2.10;;;16.10;71.00;;;;;;2213454;64;20199;-70
2022/04/28 11:24:32;;;;;;;8.70;2.70;;;16.10;70.40;;;;;;2214593;64;20599;-71
2022/04/28 11:27:23;;;;;;;9.45;2.30;;;16.00;70.00;;;;;;2214601;64;20222;-70
2022/04/28 11:30:01;;;;;;;6.32;2.45;;;15.90;69.70;;;;;;2212166;64;20187;-70
2022/04/28 11:32:57;;;;;;;8.40;2.40;;;16.20;70.80;;;;;;2214899;64;20321;-69
2022/04/28 11:35:39;;;;;;;4.85;2.00;;;16.30;71.30;;;;;;2213478;64;20298;-70
2022/04/28 11:38:32;;;;;;;3.22;1.95;;;16.80;69.60;;;;;;2213470;64;20167;-70
2022/04/28 11:41:09;;;;;;;9.52;2.10;;;16.90;68.30;;;;;;2210736;64;20400;-69
2022/04/28 11:43:47;;;;;;;5.20;2.05;;;16.80;68.10;;;;;;2214890;64;20186;-71
2022/04/28 11:46:29;;;;;;;5.82;2.05;;;16.80;67.90;;;;;;2214160;64;20172;-71
2022/04/28 11:49:09;;;;;;;6.93;2.05;;;16.90;67.70;;;;;;2211013;64;20255;-70
2022/04/28 11:51:49;;;;;;;5.82;2.40;;;17.10;67.00;;;;;;2214336;64;20578;-71
2022/04/28 11:54:30;;;;;;;6.15;2.00;;;17.30;66.60;;;;;;2214288;64;20156;-70
2022/04/28 11:57:10;;;;;;;6.80;2.65;;;17.30;66.10;;;;;;2214154;64;20192;-71
2022/04/28 11:59:49;;;;;;;7.40;2.22;;;17.40;65.90;;;;;;2214268;64;20172;-72
2022/04/28 12:02:32;;;;;;;3.97;2.22;;;17.40;65.60;;;;;;2214897;64;20168;-70
2022/04/28 12:05:21;;;;;;;10.88;2.20;;;17.40;65.20;;;;;;2214982;64;20626;-69
2022/04/28 12:07:59;;;;;;;6.15;2.33;;;17.30;64.90;;;;;;2216040;64;20188;-70
2022/04/28 12:19:28;;;;;;;5.00;2.50;;;17.60;63.10;;;;;;2215629;64;20204;-69
2022/04/28 12:22:06;;;;;;;4.63;2.30;;;17.30;64.00;;;;;;2221880;64;20271;-70
2022/04/28 12:24:47;;;;;;;6.03;2.10;;;17.40;63.60;;;;;;2208579;64;20219;-69
2022/04/28 12:27:37;;;;;;;7.88;2.28;;;18.00;62.90;;;;;;2210093;64;20263;-69
2022/04/28 12:30:18;;;;;;;4.00;2.20;;;18.20;62.30;;;;;;2209702;64;20573;-69
2022/04/28 12:32:55;;;;;;;6.13;2.00;;;17.80;62.20;;;;;;2213338;64;20303;-68
2022/04/28 12:35:37;;;;;;;5.90;2.45;;;17.50;62.80;;;;;;2207287;64;20317;-70
2022/04/28 12:38:27;;;;;;;3.47;1.88;;;17.40;63.30;;;;;;2214290;64;20200;-70
2022/04/28 12:41:13;;;;;;;7.32;2.63;;;17.20;63.20;;;;;;2214578;64;20190;-68
2022/04/28 12:43:52;;;;;;;4.07;2.13;;;17.00;63.20;;;;;;2214306;64;20222;-70
2022/04/28 12:46:34;;;;;;;6.70;1.75;;;17.10;63.30;;;;;;2213965;64;20280;-70
2022/04/28 12:49:17;;;;;;;6.32;1.85;;;18.50;62.70;;;;;;2213747;64;20311;-69
2022/04/28 12:52:12;;;;;;;7.63;2.10;;;19.50;60.20;;;;;;2214443;64;20253;-70
2022/04/28 12:55:04;;;;;;;5.03;2.15;;;19.20;59.70;;;;;;2215253;64;20214;-70
2022/04/28 12:57:47;;;;;;;7.63;2.58;;;18.70;60.20;;;;;;2214407;64;20249;-70
2022/04/28 13:00:36;;;;;;;4.95;2.38;;;18.30;60.40;;;;;;2215088;64;20189;-68
2022/04/28 13:03:25;;;;;;;6.53;2.25;;;18.30;60.60;;;;;;2199256;65;20273;-69
2022/04/28 13:06:04;;;;;;;4.78;2.20;;;18.80;60.20;;;;;;2199779;65;20166;-70
2022/04/28 13:08:45;;;;;;;5.72;2.33;;;19.50;59.30;;;;;;2199363;65;20161;-71
2022/04/28 13:11:32;;;;;;;5.85;2.70;;;21.10;57.30;;;;;;2199437;65;20329;-68
2022/04/28 13:14:16;;;;;;;5.68;2.00;;;21.10;55.70;;;;;;2198691;65;20310;-68
2022/04/28 13:16:52;;;;;;;5.38;2.35;;;20.80;55.60;;;;;;2199349;65;20201;-70
2022/04/28 13:19:30;;;;;;;6.70;2.00;;;20.80;55.90;;;;;;2200319;65;20851;-68
2022/04/28 13:22:09;;;;;;;7.32;2.55;;;21.00;55.70;;;;;;2200614;65;20207;-70
2022/04/28 13:24:48;;;;;;;7.35;2.83;;;21.50;55.00;;;;;;2201070;65;20336;-70
2022/04/28 13:27:27;;;;;;;6.75;1.88;;;22.90;54.10;;;;;;2200774;65;20243;-67
2022/04/28 13:30:06;;;;;;;5.45;1.50;;;23.90;51.70;;;;;;2200890;65;20194;-71
2022/04/28 13:32:43;;;;;;;5.43;1.50;;;25.00;50.20;;;;;;2200662;65;20185;-70
2022/04/28 13:35:22;;;;;;;2.55;1.58;;;26.30;48.30;;;;;;2201045;65;20191;-71
2022/04/28 13:38:02;;;;;;;4.90;1.75;;;27.90;46.60;;;;;;2200415;65;20266;-70
2022/04/28 13:40:38;;;;;;;5.68;1.58;;;28.60;44.70;;;;;;2200495;65;20599;-69
2022/04/28 13:43:17;;;;;;;5.60;1.65;;;27.90;43.90;;;;;;2200076;65;20640;-71
2022/04/28 13:45:56;;;;;;;5.20;1.58;;;27.20;43.60;;;;;;2200179;65;20636;-70
2022/04/28 13:48:34;;;;;;;4.72;1.95;;;26.70;43.50;;;;;;2200256;65;20211;-71
2022/04/28 13:51:10;;;;;;;4.28;2.03;;;25.80;43.90;;;;;;2200230;65;20228;-70
2022/04/28 13:53:47;;;;;;;6.78;2.33;;;24.50;45.30;;;;;;2200515;65;20303;-71
2022/04/28 13:56:25;;;;;;;5.65;1.88;;;23.40;46.30;;;;;;2200004;65;20660;-70
2022/04/28 13:59:02;;;;;;;4.82;1.90;;;22.80;47.60;;;;;;2200567;65;20173;-72
2022/04/28 14:01:39;;;;;;;3.92;2.08;;;24.00;47.50;;;;;;2207027;64;20246;-71
2022/04/28 14:04:24;;;;;;;7.93;2.15;;;25.90;45.90;;;;;;2215720;64;20565;-72
2022/04/28 14:07:01;;;;;;;6.32;1.98;;;27.40;44.00;;;;;;2213037;64;20232;-70
2022/04/28 14:09:39;;;;;;;3.00;1.90;;;27.80;43.40;;;;;;2208196;64;20169;-71
2022/04/28 14:12:18;;;;;;;4.63;1.85;;;28.00;41.80;;;;;;2207748;64;20188;-72
2022/04/28 14:14:55;;;;;;;5.18;1.60;;;26.90;42.00;;;;;;2207749;64;20796;-72
2022/04/28 14:17:32;;;;;;;3.95;1.60;;;27.30;43.00;;;;;;2207894;64;20349;-71
2022/04/28 14:20:10;;;;;;;8.10;2.45;;;28.60;41.70;;;;;;2213984;64;20180;-70
2022/04/28 14:22:48;;;;;;;7.72;2.40;;;28.70;40.80;;;;;;2215670;64;20208;-69
2022/04/28 14:25:28;;;;;;;5.63;1.75;;;27.60;40.80;;;;;;2215361;64;20742;-71
2022/04/28 14:28:06;;;;;;;3.85;2.13;;;26.20;41.60;;;;;;2213625;64;20194;-72
2022/04/28 14:30:42;;;;;;;4.50;1.63;;;25.00;42.50;;;;;;2215318;64;20228;-71
2022/04/28 14:33:20;;;;;;;5.43;1.80;;;24.30;43.50;;;;;;2211293;64;20304;-70
2022/04/28 14:35:58;;;;;;;3.80;2.00;;;24.20;45.00;;;;;;2214927;64;20176;-71